createdAt,value
2023-03-06T00:03:45.882Z,1.34
2023-03-06T00:23:45.973Z,1.09
2023-03-06T00:43:45.989Z,1.02
2023-03-06T01:03:46.104Z,0.81
2023-03-06T01:23:46.100Z,0.42
2023-03-06T01:43:46.044Z,0.17
2023-03-06T02:03:46.078Z,0.32
2023-03-06T02:23:46.264Z,0.4
2023-03-06T02:43:46.322Z,0.58
2023-03-06T03:03:46.648Z,0.76
2023-03-06T03:23:46.340Z,0.85
2023-03-06T03:43:46.517Z,0.87
2023-03-06T04:03:46.570Z,0.86
2023-03-06T04:23:46.654Z,0.8
2023-03-06T04:43:46.600Z,0.83
2023-03-06T05:03:46.659Z,0.55
2023-03-06T05:23:46.665Z,0.63
2023-03-06T05:43:46.788Z,0.6
2023-03-06T06:03:46.851Z,0.69
2023-03-06T06:23:46.920Z,0.69
2023-03-06T06:43:46.913Z,0.78
2023-03-06T07:03:47.028Z,0.94
2023-03-06T07:23:47.100Z,1.1
2023-03-06T07:43:47.021Z,1.33
2023-03-06T08:03:47.277Z,1.82
2023-03-06T08:23:47.175Z,2.01
2023-03-06T08:43:48.416Z,2.11
2023-03-06T09:03:47.317Z,2.35
2023-03-06T09:23:47.241Z,2.91
2023-03-06T09:43:47.402Z,3.31
2023-03-06T10:03:47.486Z,3.55
2023-03-06T10:43:47.552Z,3.56
2023-03-06T11:03:47.519Z,4.12
2023-03-06T11:23:47.586Z,3.94
2023-03-06T11:43:47.700Z,4.28
2023-03-06T12:03:47.572Z,4.57
2023-03-06T12:23:47.755Z,5.03
2023-03-06T12:43:47.809Z,4.95
2023-03-06T13:03:47.774Z,5.17
2023-03-06T13:23:47.911Z,4.66
2023-03-06T13:43:47.937Z,4.48
2023-03-06T14:03:47.914Z,3.91
2023-03-06T14:23:48.001Z,4.4
2023-03-06T14:43:48.038Z,4.93
2023-03-06T15:03:48.028Z,4.34
2023-03-06T15:23:48.096Z,4.6
2023-03-06T15:43:49.406Z,4.14
2023-03-06T16:03:48.313Z,3.71
2023-03-06T16:23:48.179Z,3.48
2023-03-06T16:43:48.307Z,3.38
2023-03-06T17:03:49.053Z,3.21
2023-03-06T17:23:48.403Z,3.09
2023-03-06T17:43:48.464Z,3.03
2023-03-06T18:03:48.438Z,3.04
2023-03-06T18:23:48.551Z,3.05
2023-03-06T18:43:48.635Z,3.03
2023-03-06T19:03:48.715Z,2.91
2023-03-06T19:23:48.624Z,2.72
2023-03-06T19:43:48.796Z,2.59
2023-03-06T20:03:48.856Z,2.3
2023-03-06T20:23:48.822Z,2.26
2023-03-06T20:43:48.796Z,2.17
2023-03-06T21:03:49.014Z,2.01
2023-03-06T21:23:48.959Z,1.91
2023-03-06T21:43:49.174Z,2.14
2023-03-06T22:03:49.193Z,2.16
2023-03-06T22:23:49.149Z,2.16
2023-03-06T22:43:49.182Z,2.18
2023-03-06T23:03:49.202Z,2.09
2023-03-06T23:23:49.345Z,2.07
2023-03-06T23:43:49.329Z,2
